Time;durP1;ratioP1;P1;durP2;ratioP2;P2;SDS_P1;SDS_P2;PMS_P1;PMS_P2;Temp;Humidity;BMP_temperature;BMP_pressure;BME280_temperature;BME280_humidity;BME280_pressure;Samples;Min_cycle;Max_cycle;Signal;HPM_P1;HPM_P2
2023/05/21 00:11:32;;;;;;;27.73;16.38;;;;;;;13.75;77.03;100659.44;30863505;28;109477;-65
2023/05/21 00:26:33;;;;;;;23.67;16.37;;;;;;;13.59;76.86;100647.03;30862746;28;98272;-71
2023/05/21 00:41:34;;;;;;;20.45;16.25;;;;;;;13.33;77.25;100646.31;30860880;28;111583;-71
2023/05/21 00:56:35;;;;;;;19.90;15.27;;;;;;;13.14;77.27;100660.97;30859468;28;97557;-71
2023/05/21 01:11:47;;;;;;;18.97;16.03;;;;;;;12.94;77.72;100641.84;30858246;28;96694;-68
2023/05/21 01:26:48;;;;;;;23.17;15.63;;;;;;;12.80;77.93;100635.38;30857404;28;96746;-72
2023/05/21 01:41:52;;;;;;;21.77;14.95;;;;;;;12.66;78.26;100622.78;30856448;28;96767;-70
2023/05/21 01:56:52;;;;;;;22.40;15.50;;;;;;;12.52;78.23;100633.16;30855229;28;96719;-69
2023/05/21 02:11:53;;;;;;;21.70;16.50;;;;;;;12.40;78.68;100623.84;30853296;28;96808;-66
2023/05/21 02:26:53;;;;;;;20.17;15.27;;;;;;;12.33;78.97;100622.88;30853722;28;96784;-66
2023/05/21 02:41:53;;;;;;;22.27;15.45;;;;;;;12.24;78.92;100615.88;30863402;28;96696;-69
2023/05/21 02:56:53;;;;;;;18.58;14.27;;;;;;;12.16;79.34;100601.53;30871735;28;109576;-66
2023/05/21 03:11:54;;;;;;;19.35;15.25;;;;;;;12.16;79.46;100595.38;30869998;28;104267;-70
2023/05/21 03:26:55;;;;;;;18.88;14.65;;;;;;;12.25;79.38;100598.88;30867724;28;96699;-72
2023/05/21 03:41:55;;;;;;;16.30;13.73;;;;;;;12.41;79.52;100598.81;30867176;28;97193;-71
2023/05/21 03:56:55;;;;;;;17.58;13.63;;;;;;;12.64;79.39;100606.91;30863852;28;102353;-66
2023/05/21 04:11:56;;;;;;;16.85;11.95;;;;;;;12.98;78.82;100602.22;30863198;28;116728;-68
2023/05/21 04:27:00;;;;;;;18.35;12.05;;;;;;;13.38;78.79;100602.97;30862330;28;96728;-66
2023/05/21 04:42:01;;;;;;;14.67;11.70;;;;;;;13.81;78.47;100602.50;30861082;28;96732;-65
2023/05/21 04:57:02;;;;;;;13.93;11.13;;;;;;;14.29;77.72;100599.50;30857624;28;97748;-66
2023/05/21 05:12:02;;;;;;;15.45;11.48;;;;;;;14.88;77.04;100612.03;30857147;28;97140;-66
2023/05/21 05:27:03;;;;;;;13.18;9.52;;;;;;;15.55;76.22;100601.97;30855523;28;96643;-65
2023/05/21 05:42:04;;;;;;;11.38;9.20;;;;;;;16.26;75.17;100600.28;30856014;28;96801;-69
2023/05/21 05:57:04;;;;;;;11.82;9.63;;;;;;;17.00;73.59;100602.28;30853260;28;97319;-65
2023/05/21 06:12:05;;;;;;;10.10;8.38;;;;;;;17.63;71.58;100592.22;30857957;28;96714;-66
2023/05/21 06:27:06;;;;;;;11.33;7.80;;;;;;;18.19;69.53;100574.78;30874800;28;96740;-66
2023/05/21 06:42:06;;;;;;;9.68;7.22;;;;;;;19.01;67.18;100569.69;30872173;28;96639;-66
2023/05/21 06:57:06;;;;;;;10.52;6.68;;;;;;;19.69;64.49;100581.69;30870335;28;96740;-66
2023/05/21 07:12:07;;;;;;;10.32;6.63;;;;;;;20.49;61.78;100561.13;30868430;28;100705;-66
2023/05/21 07:27:07;;;;;;;11.93;6.47;;;;;;;21.33;59.41;100560.41;30866194;28;113796;-66
2023/05/21 07:42:07;;;;;;;9.73;5.50;;;;;;;22.00;55.55;100561.19;30866186;28;97228;-65
2023/05/21 07:57:08;;;;;;;8.03;5.77;;;;;;;22.58;53.79;100554.84;30863752;28;108405;-65
2023/05/21 08:12:08;;;;;;;9.07;6.53;;;;;;;23.60;52.01;100552.28;30861974;28;101590;-67
2023/05/21 08:27:09;;;;;;;8.05;6.10;;;;;;;24.94;48.08;100548.59;30861783;28;97049;-66
2023/05/21 08:42:34;;;;;;;7.18;5.53;;;;;;;25.80;44.86;100546.03;30858399;28;96633;-66
2023/05/21 08:57:35;;;;;;;5.63;4.60;;;;;;;26.29;41.55;100539.50;30853816;28;96775;-66
2023/05/21 09:12:35;;;;;;;6.20;4.23;;;;;;;26.91;39.23;100548.69;30857534;28;96779;-66
2023/05/21 09:27:36;;;;;;;7.00;4.35;;;;;;;27.78;38.04;100520.53;30856931;28;97997;-66
2023/05/21 09:42:41;;;;;;;7.67;4.80;;;;;;;28.99;35.69;100523.25;30854205;28;97355;-70
2023/05/21 09:57:43;;;;;;;9.40;4.43;;;;;;;29.74;34.46;100513.81;30853268;28;97939;-68
2023/05/21 10:12:46;;;;;;;6.80;3.97;;;;;;;30.14;33.09;100499.91;30852001;28;96764;-74
2023/05/21 10:27:47;;;;;;;8.77;3.37;;;;;;;30.90;31.31;100488.97;30852548;28;96723;-70
2023/05/21 10:42:56;;;;;;;6.80;3.53;;;;;;;31.50;29.65;100488.22;30851337;28;97882;-68
2023/05/21 10:58:05;;;;;;;4.33;3.37;;;;;;;31.18;29.34;100459.63;30853893;28;97199;-66
2023/05/21 11:13:13;;;;;;;4.63;2.90;;;;;;;31.66;28.71;100460.44;30868998;28;96675;-70
2023/05/21 11:28:13;;;;;;;3.90;2.50;;;;;;;31.97;27.85;100452.31;30867583;28;97454;-67
2023/05/21 11:43:14;;;;;;;7.53;2.80;;;;;;;31.94;26.49;100444.69;30865846;28;96766;-72
2023/05/21 11:58:15;;;;;;;5.25;2.63;;;;;;;31.57;26.16;100424.50;30864792;28;96810;-66
2023/05/21 12:13:15;;;;;;;4.43;2.60;;;;;;;31.39;25.72;100426.22;30862641;28;96843;-65
2023/05/21 12:28:16;;;;;;;7.68;2.70;;;;;;;31.25;25.71;100422.63;30861500;28;97136;-66
2023/05/21 12:43:16;;;;;;;5.82;2.50;;;;;;;31.39;26.40;100413.28;30859573;28;96714;-66
2023/05/21 12:58:20;;;;;;;4.78;2.70;;;;;;;31.30;26.19;100412.34;30858237;28;106716;-66
2023/05/21 13:13:21;;;;;;;4.13;2.73;;;;;;;31.27;26.68;100401.94;30856428;28;96805;-65
2023/05/21 13:28:22;;;;;;;7.43;2.90;;;;;;;31.05;26.21;100406.19;30854323;28;103429;-65
2023/05/21 13:43:22;;;;;;;3.67;2.60;;;;;;;30.96;26.36;100397.00;30855490;28;96773;-65
2023/05/21 13:58:23;;;;;;;5.13;2.63;;;;;;;30.53;26.52;100397.19;30854214;28;102489;-71
2023/05/21 14:13:23;;;;;;;4.03;2.45;;;;;;;30.02;26.75;100385.00;30852954;28;96729;-74
2023/05/21 14:28:24;;;;;;;4.53;2.83;;;;;;;29.75;27.56;100380.94;30852803;28;97578;-74
2023/05/21 14:43:24;;;;;;;4.55;2.88;;;;;;;29.16;27.96;100385.72;30870580;28;96726;-74
2023/05/21 14:58:25;;;;;;;3.45;2.70;;;;;;;28.73;28.75;100382.84;30871014;28;97107;-72
2023/05/21 15:13:26;;;;;;;3.55;2.40;;;;;;;28.45;28.66;100364.13;30869081;28;96763;-65
2023/05/21 15:28:26;;;;;;;4.05;2.60;;;;;;;28.25;28.28;100356.84;30868070;28;96738;-65
2023/05/21 15:43:26;;;;;;;5.75;2.58;;;;;;;28.23;28.50;100364.56;30865663;28;97306;-65
2023/05/21 15:58:27;;;;;;;5.85;2.88;;;;;;;27.80;28.48;100351.38;30864332;28;97457;-65
2023/05/21 16:13:27;;;;;;;12.02;2.50;;;;;;;27.46;28.45;100352.06;30862292;28;96695;-65
2023/05/21 16:28:28;;;;;;;3.63;2.35;;;;;;;27.04;29.93;100350.53;30861152;28;97487;-66
2023/05/21 16:43:28;;;;;;;5.07;2.70;;;;;;;26.41;30.80;100348.06;30859152;28;96738;-73
2023/05/21 16:58:29;;;;;;;5.05;2.42;;;;;;;25.72;31.60;100347.38;30858133;28;108037;-78
2023/05/21 17:13:29;;;;;;;4.80;2.40;;;;;;;25.08;32.24;100360.13;30856792;28;105613;-75
2023/05/21 17:28:29;;;;;;;4.65;2.45;;;;;;;24.46;33.51;100367.78;30788237;28;98505;-69
2023/05/21 17:43:30;;;;;;;4.90;2.40;;;;;;;23.86;34.93;100369.59;30739725;28;96794;-64
2023/05/21 17:58:31;;;;;;;3.78;2.20;;;;;;;23.18;36.43;100370.63;30742828;28;97562;-74
2023/05/21 18:13:31;;;;;;;3.30;2.28;;;;;;;22.50;37.76;100378.78;30773018;28;97164;-74
2023/05/21 18:28:32;;;;;;;5.80;2.53;;;;;;;21.81;39.10;100382.34;30783311;28;97295;-72
2023/05/21 18:43:32;;;;;;;7.75;3.63;;;;;;;21.22;40.71;100380.50;30781188;28;97688;-72
2023/05/21 18:58:33;;;;;;;4.67;2.93;;;;;;;20.70;41.89;100383.09;30811105;28;97933;-71
2023/05/21 19:13:33;;;;;;;5.80;3.20;;;;;;;20.26;42.74;100402.22;30871905;28;96743;-71
2023/05/21 19:28:33;;;;;;;5.73;3.00;;;;;;;19.84;43.99;100399.44;30871411;28;107100;-76
2023/05/21 19:43:34;;;;;;;6.78;3.22;;;;;;;19.39;44.95;100389.72;30842466;28;96634;-70
2023/05/21 19:58:34;;;;;;;5.43;3.78;;;;;;;18.87;46.16;100393.47;30734470;28;97438;-70
2023/05/21 20:13:34;;;;;;;7.82;3.78;;;;;;;18.46;47.58;100378.63;30732793;28;97028;-69
2023/05/21 20:28:36;;;;;;;7.32;4.07;;;;;;;18.07;48.71;100367.03;30730247;28;97297;-68
2023/05/21 20:43:36;;;;;;;8.10;4.27;;;;;;;17.77;49.50;100375.66;30861926;28;96820;-70
2023/05/21 20:58:38;;;;;;;4.03;3.33;;;;;;;17.44;50.33;100368.47;30859279;28;97457;-70
2023/05/21 21:13:39;;;;;;;7.33;4.50;;;;;;;17.14;51.11;100374.34;30848261;28;97072;-68
2023/05/21 21:28:40;;;;;;;5.37;3.77;;;;;;;16.88;52.16;100370.63;30856431;28;96661;-67
2023/05/21 21:43:40;;;;;;;8.25;4.00;;;;;;;16.62;52.94;100374.13;30851065;28;97080;-66
2023/05/21 21:58:41;;;;;;;6.95;4.05;;;;;;;16.35;53.71;100390.22;30854937;28;96718;-65
2023/05/21 22:13:41;;;;;;;11.20;3.75;;;;;;;16.10;54.61;100400.66;30853226;28;97494;-64
2023/05/21 22:28:42;;;;;;;10.15;4.20;;;;;;;15.86;55.37;100399.34;30852622;28;98651;-65
2023/05/21 22:43:42;;;;;;;6.35;3.85;;;;;;;15.64;56.25;100394.06;30851914;28;97281;-65
2023/05/21 22:58:43;;;;;;;6.10;3.80;;;;;;;15.43;56.95;100396.81;30861244;28;97155;-65
2023/05/21 23:13:44;;;;;;;6.90;4.13;;;;;;;15.19;58.05;100394.41;30869471;28;96695;-65
2023/05/21 23:28:44;;;;;;;5.30;4.20;;;;;;;14.97;58.66;100390.13;30868994;28;97306;-66
2023/05/21 23:43:44;;;;;;;8.20;4.20;;;;;;;14.75;59.55;100382.09;30866682;28;110223;-65
2023/05/21 23:58:45;;;;;;;5.50;3.90;;;;;;;14.52;60.32;100369.69;30864277;28;97401;-65
